Killeen, TX (76543)

12:19 PM CDT on March 30, 2017 (GMT -0500)
Lake Rd. | | Change Station

Elev 830 ft 31.12 °N, 97.68 °W | Updated 17 seconds ago

Clear
Clear
76.9 °F
Feels Like 78 °F
N
4.0
Wind Variable Wind from NW

Today
High -- | Low -- °F
--% Chance of Precip.
Yesterday
High -- | Low -- °F
Precip. -- in
Pressure 29.93 in
Visibility 10.0 miles
Clouds Clear
Heat Index 78 °F
Dew Point 53 °F
Humidity 44%
Rainfall 0.00 in
Snow Depth Not available.
7:21 AM 7:48 PM
Waxing Crescent, 9% visible
METAR KILE 301656Z AUTO 31013G20KT 10SM CLR 21/07 A2989 RMK AO2 SLP134 T02060067
Pressure 29.93 in
Visibility 10.0 miles
Clouds Clear
Heat Index 78 °F
Dew Point 53 °F
Humidity 44%
Rainfall 0.00 in
Snow Depth Not available.
7:21 AM 7:48 PM
Waxing Crescent, 9% visible
METAR KILE 301656Z AUTO 31013G20KT 10SM CLR 21/07 A2989 RMK AO2 SLP134 T02060067

Get Severe Weather Alerts

Thanks for signing up!

Be on the lookout for a verification email in your inbox.

You'll start receiving the daily forecast at 8 AM.

×

10-Day Weather Forecast

Almanac

Astronomy

Mar. 30, 2017 Rise Set
Actual Time
Civil Twilight
Nautical Twilight
Astronomical Twilight
Moon
Length of Visible Light
Length of Day
Tomorrow will be .
, % of the Moon is Illuminated

Today's Extremes

State Highs State Lows

Community

WunderPhotos

Upload Photos

1,962,540 photos uploaded!

WunderBlog® & News

Nearby

Air Quality

  Air Quality AQ Index Pollutant
Not available.

Snow Depth

Station Depth Elevation

Earthquake Activity

City Distance Mag. Time & Date
Minimum magnitude displayed is 2.5.

Earthquake Activity

City Distance Mag. Time & Date
Minimum magnitude displayed is 2.5.

Coastal Water Temperatures

Place Temperature

Stations

Nearby Weather Stations

Station Location Temp. Windchill Dew Point Humidity Wind Precip. Elev Updated Type
                   

Watches & Warnings

There are currently no watches in effect.